createdAt,value
2022-10-15T00:08:16.023Z,90.0
2022-10-15T00:22:16.034Z,90.0
2022-10-15T00:36:16.035Z,89.0
2022-10-15T00:50:16.017Z,88.0
2022-10-15T01:04:16.038Z,77.0
2022-10-15T01:18:16.043Z,78.0
2022-10-15T01:32:16.043Z,82.0
2022-10-15T01:46:16.038Z,82.0
2022-10-15T02:00:16.048Z,85.0
2022-10-15T02:14:16.052Z,84.0
2022-10-15T02:28:16.116Z,85.0
2022-10-15T02:42:16.129Z,87.0
2022-10-15T02:56:16.421Z,88.0
2022-10-15T03:10:16.528Z,88.0
2022-10-15T03:24:16.549Z,88.0
2022-10-15T03:38:16.554Z,90.0
2022-10-15T03:52:16.633Z,91.0
2022-10-15T04:06:16.650Z,90.0
2022-10-15T04:20:16.659Z,90.0
2022-10-15T04:34:16.713Z,90.0
2022-10-15T04:48:17.053Z,91.0
2022-10-15T05:02:17.089Z,91.0
2022-10-15T05:16:16.991Z,91.0
2022-10-15T05:31:19.012Z,92.0
2022-10-15T05:46:17.032Z,93.0
2022-10-15T06:01:17.008Z,93.0
2022-10-15T06:16:18.049Z,93.0
2022-10-15T06:31:17.021Z,92.0
2022-10-15T06:46:17.018Z,90.0
2022-10-15T07:01:17.025Z,89.0
2022-10-15T07:16:17.027Z,86.0
2022-10-15T07:31:17.090Z,74.0
2022-10-15T07:46:17.307Z,72.0
2022-10-15T08:01:17.293Z,62.0
2022-10-15T08:17:17.295Z,58.0
2022-10-15T08:32:17.309Z,59.0
2022-10-15T08:47:17.313Z,59.0
2022-10-15T09:02:17.348Z,58.0
2022-10-15T09:17:17.460Z,60.0
2022-10-15T09:32:17.460Z,60.0
2022-10-15T09:47:17.461Z,55.0
2022-10-15T10:02:17.500Z,57.0
2022-10-15T10:17:17.481Z,58.0
2022-10-15T10:32:17.467Z,60.0
2022-10-15T10:47:17.453Z,60.0
2022-10-15T11:02:17.470Z,59.0
2022-10-15T11:17:17.496Z,58.0
2022-10-15T11:32:18.623Z,57.0
2022-10-15T11:47:17.562Z,59.0
2022-10-15T12:03:17.551Z,61.0
2022-10-15T12:18:17.507Z,59.0
2022-10-15T12:33:17.496Z,59.0
2022-10-15T12:48:17.509Z,56.0
2022-10-15T13:03:17.502Z,58.0
2022-10-15T13:18:17.505Z,57.0
2022-10-15T13:33:17.518Z,58.0
2022-10-15T13:48:17.514Z,59.0
2022-10-15T14:03:17.550Z,59.0
2022-10-15T14:18:17.629Z,60.0
2022-10-15T14:33:17.662Z,61.0
2022-10-15T14:48:17.665Z,64.0
2022-10-15T15:03:17.662Z,68.0
2022-10-15T15:18:17.601Z,73.0
2022-10-15T15:33:17.597Z,76.0
2022-10-15T15:48:17.608Z,80.0
2022-10-15T16:03:17.598Z,82.0
2022-10-15T16:18:17.604Z,83.0
2022-10-15T16:34:17.596Z,84.0
2022-10-15T16:49:17.607Z,85.0
2022-10-15T17:04:17.608Z,84.0
2022-10-15T17:18:17.629Z,84.0
2022-10-15T17:32:17.644Z,82.0
2022-10-15T17:46:17.631Z,82.0
2022-10-15T18:00:17.632Z,84.0
2022-10-15T18:14:17.654Z,84.0
2022-10-15T18:28:17.694Z,84.0
2022-10-15T18:42:17.664Z,84.0
2022-10-15T18:56:17.654Z,85.0
2022-10-15T19:10:19.130Z,86.0
2022-10-15T19:24:17.668Z,86.0
2022-10-15T19:38:17.673Z,85.0
2022-10-15T19:52:17.687Z,86.0
2022-10-15T20:06:17.668Z,86.0
2022-10-15T20:20:17.691Z,87.0
2022-10-15T20:34:17.673Z,88.0
2022-10-15T20:48:17.675Z,87.0
2022-10-15T21:02:17.713Z,88.0
2022-10-15T21:16:17.733Z,88.0
2022-10-15T21:30:17.711Z,88.0
2022-10-15T21:44:17.722Z,88.0
2022-10-15T21:58:17.733Z,88.0
2022-10-15T22:12:19.008Z,89.0
2022-10-15T22:26:17.740Z,90.0
2022-10-15T22:40:17.734Z,90.0
2022-10-15T22:54:17.738Z,91.0
2022-10-15T23:08:17.759Z,91.0
2022-10-15T23:22:17.769Z,91.0
2022-10-15T23:36:17.749Z,91.0
2022-10-15T23:50:17.746Z,91.0
